createdAt,value
2022-10-05T00:00:01.413Z,1010.1
2022-10-05T00:01:04.841Z,1010.1
2022-10-05T00:02:07.403Z,1010
2022-10-05T00:03:10.264Z,1010
2022-10-05T00:04:13.470Z,1010
2022-10-05T00:05:16.476Z,1010
2022-10-05T00:06:19.810Z,1010
2022-10-05T00:07:22.535Z,1010
2022-10-05T00:08:24.794Z,1010
2022-10-05T00:09:27.484Z,1010
2022-10-05T00:10:31.018Z,1010
2022-10-05T00:11:34.454Z,1010
2022-10-05T00:12:37.257Z,1010
2022-10-05T00:13:40.059Z,1010
2022-10-05T00:14:43.563Z,1010
2022-10-05T00:15:47.410Z,1010
2022-10-05T00:16:51.868Z,1010
2022-10-05T00:17:55.201Z,1010
2022-10-05T00:18:58.570Z,1010.1
2022-10-05T00:20:01.415Z,1010.1
2022-10-05T00:21:04.284Z,1010.1
2022-10-05T00:22:07.072Z,1010
2022-10-05T00:23:09.783Z,1010
2022-10-05T00:24:12.802Z,1010.1
2022-10-05T00:25:16.142Z,1010.1
2022-10-05T00:26:19.571Z,1010.1
2022-10-05T00:27:22.829Z,1010.1
2022-10-05T00:28:26.053Z,1010.1
2022-10-05T00:29:29.310Z,1010.1
2022-10-05T00:30:32.557Z,1010.1
2022-10-05T00:31:36.691Z,1010.2
2022-10-05T00:32:40.410Z,1010.2
2022-10-05T00:33:43.318Z,1010.2
2022-10-05T00:34:46.304Z,1010.2
2022-10-05T00:35:49.311Z,1010.2
2022-10-05T00:36:52.806Z,1010.1
2022-10-05T00:37:55.687Z,1010.1
2022-10-05T00:38:58.788Z,1010.1
2022-10-05T00:40:01.886Z,1010.1
2022-10-05T00:41:05.567Z,1010.1
2022-10-05T00:42:09.356Z,1010.1
2022-10-05T00:43:12.505Z,1010
2022-10-05T00:44:15.225Z,1010.1
2022-10-05T00:45:18.445Z,1010.1
2022-10-05T00:46:22.072Z,1010.1
2022-10-05T00:47:26.340Z,1010.1
2022-10-05T00:48:29.758Z,1010.1
2022-10-05T00:49:33.132Z,1010.1
2022-10-05T00:50:36.195Z,1010.1
2022-10-05T00:51:38.701Z,1010.1
2022-10-05T00:52:41.219Z,1010
2022-10-05T00:53:44.453Z,1010
2022-10-05T00:54:47.446Z,1010
2022-10-05T00:55:50.182Z,1010
2022-10-05T00:56:52.980Z,1010
2022-10-05T00:57:55.897Z,1010
2022-10-05T00:58:58.057Z,1010
2022-10-05T01:00:01.334Z,1010
2022-10-05T01:01:04.953Z,1009.9
2022-10-05T01:02:08.333Z,1009.9
2022-10-05T01:03:12.345Z,1009.9
2022-10-05T01:04:15.158Z,1009.9
2022-10-05T01:05:18.152Z,1009.9
2022-10-05T01:06:21.044Z,1009.9
2022-10-05T01:07:23.362Z,1009.8
2022-10-05T01:08:26.148Z,1009.8
2022-10-05T01:09:29.606Z,1009.9
2022-10-05T01:10:31.916Z,1009.9
2022-10-05T01:11:35.103Z,1009.8
2022-10-05T01:12:37.607Z,1009.8
2022-10-05T01:13:40.996Z,1009.8
2022-10-05T01:14:43.730Z,1009.8
2022-10-05T01:15:46.407Z,1009.8
2022-10-05T01:16:51.173Z,1009.8
2022-10-05T01:17:55.367Z,1009.8
2022-10-05T01:18:59.062Z,1009.8
2022-10-05T01:20:02.517Z,1009.8
2022-10-05T01:21:05.977Z,1009.8
2022-10-05T01:22:09.368Z,1009.8
2022-10-05T01:23:12.169Z,1009.8
2022-10-05T01:24:14.969Z,1009.8
2022-10-05T01:25:18.034Z,1009.8
2022-10-05T01:26:21.099Z,1009.8
2022-10-05T01:27:23.634Z,1009.8
2022-10-05T01:28:26.576Z,1009.8
2022-10-05T01:29:29.585Z,1009.9
2022-10-05T01:30:33.304Z,1009.8
2022-10-05T01:31:37.053Z,1009.8
2022-10-05T01:32:40.303Z,1009.8
2022-10-05T01:33:43.806Z,1009.8
2022-10-05T01:34:47.575Z,1009.9
2022-10-05T01:35:50.387Z,1009.9
2022-10-05T01:36:53.544Z,1009.8
2022-10-05T01:37:56.968Z,1009.8
2022-10-05T01:38:59.853Z,1009.7
2022-10-05T01:40:02.987Z,1009.7
2022-10-05T01:41:06.740Z,1009.7
2022-10-05T01:42:09.838Z,1009.7
2022-10-05T01:43:12.952Z,1009.7
2022-10-05T01:44:16.096Z,1009.7
2022-10-05T01:45:18.980Z,1009.7
2022-10-05T01:46:21.993Z,1009.6
2022-10-05T01:47:25.317Z,1009.6
2022-10-05T01:48:28.114Z,1009.6
2022-10-05T01:49:31.289Z,1009.5
2022-10-05T01:50:34.531Z,1009.5
2022-10-05T01:51:37.918Z,1009.5
2022-10-05T01:52:40.921Z,1009.5
2022-10-05T01:53:43.792Z,1009.4
2022-10-05T01:54:47.140Z,1009.5
2022-10-05T01:55:50.581Z,1009.4
2022-10-05T01:56:52.980Z,1009.4
2022-10-05T01:57:56.249Z,1009.4
2022-10-05T01:58:59.538Z,1009.3
2022-10-05T02:00:02.519Z,1009.3
2022-10-05T02:01:05.783Z,1009.3
2022-10-05T02:02:09.261Z,1009.3
2022-10-05T02:03:12.617Z,1009.2
2022-10-05T02:06:09.742Z,1009.2
2022-10-05T02:07:12.177Z,1009.2
2022-10-05T02:08:15.556Z,1009.1
2022-10-05T02:09:17.993Z,1009.2
2022-10-05T02:10:21.068Z,1009.2
2022-10-05T02:11:23.964Z,1009.2
2022-10-05T02:12:27.151Z,1009.1
2022-10-05T02:13:30.567Z,1009.1
2022-10-05T02:14:34.340Z,1009.1
2022-10-05T02:15:37.841Z,1009.1
2022-10-05T02:16:41.521Z,1009
2022-10-05T02:17:44.375Z,1009
2022-10-05T02:18:46.803Z,1009
2022-10-05T02:19:50.491Z,1009
2022-10-05T02:20:54.485Z,1008.9
2022-10-05T02:21:58.311Z,1008.9
2022-10-05T02:23:01.381Z,1008.9
2022-10-05T02:24:04.818Z,1008.9
2022-10-05T02:25:07.438Z,1008.9
2022-10-05T02:26:10.900Z,1008.9
2022-10-05T02:27:13.454Z,1008.8
2022-10-05T02:28:17.009Z,1008.8
2022-10-05T02:29:20.722Z,1008.9
2022-10-05T02:30:23.666Z,1008.9
2022-10-05T02:31:26.947Z,1009
2022-10-05T02:32:31.460Z,1008.9
2022-10-05T02:33:34.980Z,1008.9
2022-10-05T02:34:38.360Z,1009
2022-10-05T02:35:40.931Z,1009
2022-10-05T02:36:44.614Z,1009
2022-10-05T02:37:50.496Z,1009.1
2022-10-05T02:38:53.172Z,1009.1
2022-10-05T02:39:56.893Z,1009.1
2022-10-05T02:40:59.689Z,1009
2022-10-05T02:42:02.834Z,1009.1
2022-10-05T02:43:05.629Z,1009
2022-10-05T02:44:07.945Z,1009
2022-10-05T02:45:10.822Z,1009
2022-10-05T02:46:14.058Z,1009
2022-10-05T02:47:16.704Z,1008.9
2022-10-05T02:48:20.463Z,1008.9
2022-10-05T02:49:23.333Z,1009
2022-10-05T02:50:26.132Z,1008.9
2022-10-05T02:51:29.251Z,1008.9
2022-10-05T02:52:31.882Z,1009
2022-10-05T02:53:35.809Z,1009
2022-10-05T02:54:38.684Z,1009.1
2022-10-05T02:55:41.187Z,1009.1
2022-10-05T02:56:44.819Z,1009.1
2022-10-05T02:57:49.491Z,1009.1
2022-10-05T02:58:52.555Z,1009.1
2022-10-05T02:59:55.621Z,1009.2
2022-10-05T03:00:58.799Z,1009.2
2022-10-05T03:02:02.576Z,1009.2
2022-10-05T03:03:05.859Z,1009.2
2022-10-05T03:04:09.256Z,1009.1
2022-10-05T03:05:12.322Z,1009.2
2022-10-05T03:06:15.404Z,1009.1
2022-10-05T03:07:18.749Z,1009.1
2022-10-05T03:08:21.623Z,1009.1
2022-10-05T03:09:25.719Z,1009.1
2022-10-05T03:10:28.967Z,1009.1
2022-10-05T03:11:31.774Z,1009
2022-10-05T03:12:34.662Z,1009
2022-10-05T03:13:37.201Z,1009
2022-10-05T03:14:39.735Z,1009
2022-10-05T03:15:42.316Z,1009
2022-10-05T03:16:46.061Z,1009
2022-10-05T03:17:51.225Z,1008.9
2022-10-05T03:18:54.186Z,1008.9
2022-10-05T03:19:57.477Z,1008.9
2022-10-05T03:21:00.271Z,1008.9
2022-10-05T03:22:03.429Z,1008.9
2022-10-05T03:23:06.493Z,1008.9
2022-10-05T03:24:09.638Z,1008.9
2022-10-05T03:25:13.560Z,1008.9
2022-10-05T03:26:16.558Z,1008.9
2022-10-05T03:27:19.503Z,1008.9
2022-10-05T03:28:22.848Z,1008.9
2022-10-05T03:29:25.984Z,1008.8
2022-10-05T03:30:28.489Z,1008.9
2022-10-05T03:31:31.452Z,1008.8
2022-10-05T03:32:34.756Z,1008.8
2022-10-05T03:33:37.953Z,1008.8
2022-10-05T03:34:40.458Z,1008.7
2022-10-05T03:35:43.529Z,1008.7
2022-10-05T03:36:47.839Z,1008.7
2022-10-05T03:37:51.709Z,1008.7
2022-10-05T03:38:54.872Z,1008.6
2022-10-05T03:39:57.780Z,1008.7
2022-10-05T03:41:01.498Z,1008.6
2022-10-05T03:42:04.563Z,1008.7
2022-10-05T03:43:08.001Z,1008.7
2022-10-05T03:44:10.503Z,1008.6
2022-10-05T03:45:13.128Z,1008.7
2022-10-05T03:46:16.361Z,1008.7
2022-10-05T03:47:20.588Z,1008.6
2022-10-05T03:48:23.658Z,1008.6
2022-10-05T03:49:26.488Z,1008.6
2022-10-05T03:50:29.650Z,1008.6
2022-10-05T03:51:33.017Z,1008.5
2022-10-05T03:52:36.162Z,1008.5
2022-10-05T03:53:39.236Z,1008.5
2022-10-05T03:54:42.437Z,1008.6
2022-10-05T03:55:45.588Z,1008.6
2022-10-05T03:56:50.207Z,1008.6
2022-10-05T03:57:52.904Z,1008.6
2022-10-05T03:58:56.165Z,1008.7
2022-10-05T03:59:58.672Z,1008.6
2022-10-05T04:01:01.275Z,1008.6
2022-10-05T04:02:04.612Z,1008.6
2022-10-05T04:03:08.123Z,1008.5
2022-10-05T04:04:10.905Z,1008.5
2022-10-05T04:05:13.640Z,1008.5
2022-10-05T04:06:17.075Z,1008.5
2022-10-05T04:07:20.076Z,1008.4
2022-10-05T04:08:22.951Z,1008.3
2022-10-05T04:09:26.095Z,1008.4
2022-10-05T04:10:29.269Z,1008.3
2022-10-05T04:11:32.415Z,1008.3
2022-10-05T04:12:36.546Z,1008.3
2022-10-05T04:13:39.255Z,1008.3
2022-10-05T04:14:41.780Z,1008.3
2022-10-05T04:15:45.000Z,1008.3
2022-10-05T04:16:49.212Z,1008.3
2022-10-05T04:17:52.542Z,1008.3
2022-10-05T04:18:56.082Z,1008.3
2022-10-05T04:19:59.505Z,1008.3
2022-10-05T04:21:02.995Z,1008.3
2022-10-05T04:22:06.359Z,1008.2
2022-10-05T04:23:09.088Z,1008.3
2022-10-05T04:24:12.780Z,1008.3
2022-10-05T04:25:15.947Z,1008.3
2022-10-05T04:26:18.828Z,1008.4
2022-10-05T04:27:21.772Z,1008.3
2022-10-05T04:28:32.292Z,1008.3
2022-10-05T04:29:36.428Z,1008.3
2022-10-05T04:30:39.586Z,1008.3
2022-10-05T04:31:43.505Z,1008.3
2022-10-05T04:32:46.402Z,1008.3
2022-10-05T04:33:49.840Z,1008.3
2022-10-05T04:34:53.285Z,1008.3
2022-10-05T04:35:55.879Z,1008.2
2022-10-05T04:36:58.975Z,1008.3
2022-10-05T04:38:02.050Z,1008.3
2022-10-05T04:39:05.211Z,1008.4
2022-10-05T04:40:08.282Z,1008.4
2022-10-05T04:41:11.465Z,1008.4
2022-10-05T04:42:14.618Z,1008.3
2022-10-05T04:43:17.968Z,1008.3
2022-10-05T04:44:21.864Z,1008.3
2022-10-05T04:45:25.583Z,1008.2
2022-10-05T04:46:29.056Z,1008.3
2022-10-05T04:47:32.764Z,1008.3
2022-10-05T04:48:36.225Z,1008.3
2022-10-05T04:49:39.374Z,1008.3
2022-10-05T04:50:42.247Z,1008.3
2022-10-05T04:51:51.497Z,1008.3
2022-10-05T04:52:54.328Z,1008.3
2022-10-05T04:53:57.408Z,1008.3
2022-10-05T04:55:00.565Z,1008.4
2022-10-05T04:56:03.542Z,1008.4
2022-10-05T04:57:06.255Z,1008.4
2022-10-05T04:58:09.123Z,1008.4
2022-10-05T04:59:11.069Z,1008.3
2022-10-05T05:00:15.316Z,1008.3
2022-10-05T05:01:18.703Z,1008.4
2022-10-05T05:02:22.576Z,1008.4
2022-10-05T05:03:25.730Z,1008.4
2022-10-05T05:04:28.981Z,1008.4
2022-10-05T05:05:32.669Z,1008.4
2022-10-05T05:06:35.754Z,1008.4
2022-10-05T05:07:38.921Z,1008.4
2022-10-05T05:08:41.615Z,1008.4
2022-10-05T05:09:44.517Z,1008.4
2022-10-05T05:10:48.027Z,1008.3
2022-10-05T05:11:51.097Z,1008.3
2022-10-05T05:12:54.178Z,1008.4
2022-10-05T05:13:57.240Z,1008.3
2022-10-05T05:15:00.700Z,1008.4
2022-10-05T05:16:05.183Z,1008.3
2022-10-05T05:17:13.512Z,1008.3
2022-10-05T05:18:16.313Z,1008.4
2022-10-05T05:19:19.727Z,1008.4
2022-10-05T05:20:22.451Z,1008.4
2022-10-05T05:21:25.967Z,1008.5
2022-10-05T05:22:29.051Z,1008.4
2022-10-05T05:23:32.408Z,1008.5
2022-10-05T05:24:35.438Z,1008.4
2022-10-05T05:25:38.145Z,1008.5
2022-10-05T05:26:41.587Z,1008.4
2022-10-05T05:27:44.193Z,1008.4
2022-10-05T05:28:47.362Z,1008.4
2022-10-05T05:29:51.183Z,1008.4
2022-10-05T05:30:54.134Z,1008.4
2022-10-05T05:31:58.134Z,1008.4
2022-10-05T05:33:01.015Z,1008.4
2022-10-05T05:34:03.874Z,1008.4
2022-10-05T05:35:06.472Z,1008.4
2022-10-05T05:36:09.632Z,1008.4
2022-10-05T05:37:12.520Z,1008.4
2022-10-05T05:38:15.912Z,1008.4
2022-10-05T05:39:18.231Z,1008.3
2022-10-05T05:40:21.348Z,1008.3
2022-10-05T05:41:24.140Z,1008.3
2022-10-05T05:42:27.581Z,1008.3
2022-10-05T05:43:30.393Z,1008.2
2022-10-05T05:44:39.171Z,1008.2
2022-10-05T05:45:42.353Z,1008.2
2022-10-05T05:47:05.226Z,1008.2
2022-10-05T05:48:12.001Z,1008.2
2022-10-05T05:49:15.718Z,1008.2
2022-10-05T05:50:18.782Z,1008.2
2022-10-05T05:51:21.616Z,1008.2
2022-10-05T05:52:23.859Z,1008.2
2022-10-05T05:53:27.036Z,1008.2
2022-10-05T05:54:30.111Z,1008.2
2022-10-05T05:55:33.759Z,1008.2
2022-10-05T05:56:36.911Z,1008.2
2022-10-05T05:57:40.055Z,1008.2
2022-10-05T05:58:42.777Z,1008.2
2022-10-05T05:59:45.903Z,1008.2
2022-10-05T06:00:49.132Z,1008.1
2022-10-05T06:01:52.145Z,1008.2
2022-10-05T06:02:56.087Z,1008.2
2022-10-05T06:04:00.226Z,1008.3
2022-10-05T06:05:03.391Z,1008.3
2022-10-05T06:06:06.366Z,1008.2
2022-10-05T06:07:10.115Z,1008.2
2022-10-05T06:08:13.269Z,1008.2
2022-10-05T06:09:15.863Z,1008.3
2022-10-05T06:10:19.295Z,1008.2
2022-10-05T06:11:22.110Z,1008.2
2022-10-05T06:12:24.707Z,1008.1
2022-10-05T06:13:27.612Z,1008.1
2022-10-05T06:14:30.434Z,1008.1
2022-10-05T06:15:33.504Z,1008.1
2022-10-05T06:16:36.762Z,1008.1
2022-10-05T06:17:39.918Z,1008.1
2022-10-05T06:18:42.904Z,1008.1
2022-10-05T06:19:46.805Z,1008.1
2022-10-05T06:20:49.972Z,1008.1
2022-10-05T06:21:53.337Z,1008.1
2022-10-05T06:22:56.483Z,1008.1
2022-10-05T06:23:59.914Z,1008.1
2022-10-05T06:25:03.290Z,1008.1
2022-10-05T06:26:11.200Z,1008
2022-10-05T06:27:14.592Z,1008
2022-10-05T06:28:17.795Z,1008
2022-10-05T06:29:21.775Z,1008.1
2022-10-05T06:30:23.950Z,1008.1
2022-10-05T06:31:27.279Z,1008.1
2022-10-05T06:32:30.141Z,1008.1
2022-10-05T06:33:33.309Z,1008.2
2022-10-05T06:34:36.384Z,1008.1
2022-10-05T06:35:40.523Z,1008.1
2022-10-05T06:36:43.616Z,1008.1
2022-10-05T06:37:47.468Z,1008.2
2022-10-05T06:38:50.621Z,1008.3
2022-10-05T06:40:00.839Z,1008.2
2022-10-05T06:41:04.335Z,1008.2
2022-10-05T06:42:08.424Z,1008.2
2022-10-05T06:43:11.705Z,1008.2
2022-10-05T06:44:14.795Z,1008.2
2022-10-05T06:45:17.673Z,1008.2
2022-10-05T06:46:20.555Z,1008.2
2022-10-05T06:47:23.874Z,1008.2
2022-10-05T06:48:27.344Z,1008.2
2022-10-05T06:49:30.408Z,1008.2
2022-10-05T06:50:33.037Z,1008.2
2022-10-05T06:51:37.210Z,1008.1
2022-10-05T06:52:40.499Z,1008.1
2022-10-05T06:53:43.576Z,1008.1
2022-10-05T06:54:46.704Z,1008
2022-10-05T06:55:49.905Z,1008.1
2022-10-05T06:56:52.954Z,1008
2022-10-05T06:57:56.580Z,1008.1
2022-10-05T06:58:59.671Z,1008
2022-10-05T07:00:02.550Z,1008
2022-10-05T07:01:06.110Z,1008
2022-10-05T07:02:09.217Z,1008
2022-10-05T07:03:12.521Z,1008
2022-10-05T07:04:15.659Z,1008
2022-10-05T07:05:19.442Z,1008
2022-10-05T07:06:23.452Z,1007.9
2022-10-05T07:07:27.649Z,1007.9
2022-10-05T07:08:31.143Z,1008
2022-10-05T07:09:34.230Z,1007.9
2022-10-05T07:10:36.742Z,1008
2022-10-05T07:11:40.494Z,1007.9
2022-10-05T07:12:43.597Z,1008
2022-10-05T07:13:47.040Z,1007.9
2022-10-05T07:14:50.524Z,1007.9
2022-10-05T07:15:53.519Z,1008
2022-10-05T07:16:57.054Z,1008
2022-10-05T07:18:00.399Z,1007.9
2022-10-05T07:19:03.184Z,1007.9
2022-10-05T07:20:06.182Z,1007.9
2022-10-05T07:21:09.256Z,1007.8
2022-10-05T07:22:11.851Z,1007.9
2022-10-05T07:23:16.114Z,1007.8
2022-10-05T07:24:19.553Z,1007.9
2022-10-05T07:25:22.828Z,1007.8
2022-10-05T07:26:26.205Z,1007.8
2022-10-05T07:27:29.716Z,1007.8
2022-10-05T07:28:32.398Z,1007.8
2022-10-05T07:29:35.617Z,1007.9
2022-10-05T07:30:38.855Z,1007.9
2022-10-05T07:31:42.427Z,1007.9
2022-10-05T07:32:45.363Z,1007.9
2022-10-05T07:33:48.466Z,1007.9
2022-10-05T07:34:52.121Z,1008
2022-10-05T07:35:54.844Z,1007.9
2022-10-05T07:36:58.884Z,1007.9
2022-10-05T07:38:02.648Z,1008
2022-10-05T07:39:06.838Z,1008.1
2022-10-05T07:40:09.629Z,1007.9
2022-10-05T07:41:12.786Z,1007.9
2022-10-05T07:42:15.578Z,1008
2022-10-05T07:43:19.299Z,1008
2022-10-05T07:44:22.454Z,1008
2022-10-05T07:45:25.637Z,1008
2022-10-05T07:46:29.894Z,1007.9
2022-10-05T07:47:32.681Z,1007.9
2022-10-05T07:48:35.971Z,1007.9
2022-10-05T07:49:39.151Z,1007.9
2022-10-05T07:50:41.661Z,1007.9
2022-10-05T07:51:44.444Z,1007.8
2022-10-05T07:52:47.603Z,1007.8
2022-10-05T07:53:50.324Z,1007.9
2022-10-05T07:54:54.245Z,1007.9
2022-10-05T07:55:57.349Z,1007.8
2022-10-05T07:57:00.424Z,1007.8
2022-10-05T07:58:03.332Z,1007.8
2022-10-05T07:59:06.512Z,1007.8
2022-10-05T08:00:09.189Z,1007.8
2022-10-05T08:01:12.656Z,1007.8
2022-10-05T08:02:15.594Z,1007.8
2022-10-05T08:03:20.138Z,1007.7
2022-10-05T08:04:23.401Z,1007.8
2022-10-05T08:05:26.925Z,1007.8
2022-10-05T08:06:30.080Z,1007.9
2022-10-05T08:07:33.166Z,1007.8
2022-10-05T08:08:36.524Z,1007.9
2022-10-05T08:09:39.428Z,1007.9
2022-10-05T08:10:43.469Z,1007.9
2022-10-05T08:11:47.629Z,1007.8
2022-10-05T08:12:51.864Z,1007.9
2022-10-05T08:13:55.029Z,1007.9
2022-10-05T08:14:57.885Z,1007.9
2022-10-05T08:16:01.048Z,1007.8
2022-10-05T08:17:04.265Z,1007.9
2022-10-05T08:18:08.294Z,1007.9
2022-10-05T08:19:12.006Z,1007.8
2022-10-05T08:20:15.478Z,1007.9
2022-10-05T08:21:18.521Z,1007.9
2022-10-05T08:22:21.600Z,1007.9
2022-10-05T08:23:24.793Z,1007.9
2022-10-05T08:24:28.301Z,1007.9
2022-10-05T08:25:31.755Z,1007.9
2022-10-05T08:26:35.722Z,1007.9
2022-10-05T08:27:38.429Z,1007.9
2022-10-05T08:28:41.704Z,1008
2022-10-05T08:29:44.876Z,1008
2022-10-05T08:30:47.885Z,1007.9
2022-10-05T08:31:51.496Z,1007.9
2022-10-05T08:32:54.365Z,1008
2022-10-05T08:33:57.450Z,1007.9
2022-10-05T08:35:00.795Z,1007.9
2022-10-05T08:36:04.256Z,1007.9
2022-10-05T08:37:07.682Z,1008
2022-10-05T08:38:10.664Z,1008
2022-10-05T08:39:12.927Z,1008
2022-10-05T08:40:16.091Z,1008
2022-10-05T08:41:18.615Z,1008
2022-10-05T08:42:22.486Z,1008
2022-10-05T08:43:25.014Z,1008
2022-10-05T08:44:27.732Z,1008
2022-10-05T08:45:30.521Z,1007.9
2022-10-05T08:46:32.946Z,1007.9
2022-10-05T08:47:36.225Z,1007.9
2022-10-05T08:48:38.766Z,1007.9
2022-10-05T08:49:42.290Z,1007.9
2022-10-05T08:50:45.763Z,1007.9
2022-10-05T08:51:49.676Z,1007.9
2022-10-05T08:52:52.803Z,1007.9
2022-10-05T08:53:55.250Z,1007.9
2022-10-05T08:54:58.061Z,1007.9
2022-10-05T08:56:01.044Z,1007.9
2022-10-05T08:57:04.391Z,1007.9
2022-10-05T08:58:08.320Z,1007.9
2022-10-05T08:59:11.383Z,1008
2022-10-05T09:00:14.581Z,1008
2022-10-05T09:01:17.721Z,1008
2022-10-05T09:02:21.494Z,1008
2022-10-05T09:03:25.370Z,1008
2022-10-05T09:04:36.315Z,1007.9
2022-10-05T09:05:39.614Z,1007.9
2022-10-05T09:06:43.062Z,1007.9
2022-10-05T09:07:46.288Z,1007.9
2022-10-05T09:08:49.160Z,1007.9
2022-10-05T09:09:52.157Z,1007.9
2022-10-05T09:10:59.003Z,1007.9
2022-10-05T09:12:02.636Z,1007.9
2022-10-05T09:13:06.388Z,1007.9
2022-10-05T09:14:10.344Z,1007.9
2022-10-05T09:15:30.714Z,1008
2022-10-05T09:16:34.360Z,1008
2022-10-05T09:17:39.647Z,1008
2022-10-05T09:18:42.715Z,1008
2022-10-05T09:19:46.707Z,1008.1
2022-10-05T09:20:50.281Z,1008
2022-10-05T09:21:52.868Z,1008
2022-10-05T09:22:56.644Z,1008
2022-10-05T09:23:59.556Z,1008
2022-10-05T09:25:02.429Z,1008
2022-10-05T09:26:06.146Z,1008
2022-10-05T09:27:09.076Z,1007.9
2022-10-05T09:28:12.323Z,1007.9
2022-10-05T09:29:17.006Z,1007.9
2022-10-05T09:30:20.076Z,1007.9
2022-10-05T09:31:23.855Z,1008
2022-10-05T09:32:27.982Z,1008
2022-10-05T09:33:31.403Z,1007.9
2022-10-05T09:34:35.426Z,1007.9
2022-10-05T09:35:37.745Z,1007.8
2022-10-05T09:36:40.978Z,1007.8
2022-10-05T09:37:44.139Z,1007.9
2022-10-05T09:38:47.107Z,1008
2022-10-05T09:39:50.185Z,1007.9
2022-10-05T09:40:52.902Z,1008
2022-10-05T09:41:55.981Z,1007.9
2022-10-05T09:42:58.780Z,1008
2022-10-05T09:44:01.587Z,1007.9
2022-10-05T09:45:05.692Z,1007.9
2022-10-05T09:46:09.548Z,1008
2022-10-05T09:47:12.575Z,1007.9
2022-10-05T09:48:15.728Z,1007.9
2022-10-05T09:49:18.159Z,1008
2022-10-05T09:50:21.232Z,1007.9
2022-10-05T09:51:24.010Z,1008
2022-10-05T09:52:27.563Z,1007.9
2022-10-05T09:53:30.683Z,1007.9
2022-10-05T09:54:34.417Z,1007.9
2022-10-05T09:55:37.818Z,1007.8
2022-10-05T09:56:39.961Z,1007.9
2022-10-05T09:57:43.182Z,1007.9
2022-10-05T09:58:47.092Z,1007.9
2022-10-05T09:59:50.464Z,1007.8
2022-10-05T10:01:15.871Z,1007.8
2022-10-05T10:02:38.023Z,1007.7
2022-10-05T10:03:42.424Z,1007.7
2022-10-05T10:04:45.846Z,1007.7
2022-10-05T10:05:48.733Z,1007.7
2022-10-05T10:06:51.548Z,1007.7
2022-10-05T10:07:54.793Z,1007.6
2022-10-05T10:08:57.795Z,1007.6
2022-10-05T10:10:00.485Z,1007.7
2022-10-05T10:11:03.843Z,1007.7
2022-10-05T10:12:07.023Z,1007.7
2022-10-05T10:13:10.384Z,1007.6
2022-10-05T10:14:13.855Z,1007.6
2022-10-05T10:15:16.394Z,1007.6
2022-10-05T10:16:20.602Z,1007.6
2022-10-05T10:17:23.938Z,1007.6
2022-10-05T10:18:26.820Z,1007.6
2022-10-05T10:19:29.884Z,1007.6
2022-10-05T10:20:32.753Z,1007.5
2022-10-05T10:21:36.184Z,1007.5
2022-10-05T10:22:43.555Z,1007.5
2022-10-05T10:23:46.636Z,1007.5
2022-10-05T10:24:49.627Z,1007.5
2022-10-05T10:25:52.847Z,1007.5
2022-10-05T10:26:56.314Z,1007.5
2022-10-05T10:27:58.619Z,1007.4
2022-10-05T10:29:01.136Z,1007.4
2022-10-05T10:30:04.039Z,1007.4
2022-10-05T10:31:06.701Z,1007.4
2022-10-05T10:32:10.859Z,1007.4
2022-10-05T10:33:13.755Z,1007.4
2022-10-05T10:34:16.364Z,1007.5
2022-10-05T10:35:19.105Z,1007.4
2022-10-05T10:36:22.306Z,1007.4
2022-10-05T10:37:25.397Z,1007.5
2022-10-05T10:38:28.845Z,1007.3
2022-10-05T10:39:31.671Z,1007.4
2022-10-05T10:40:35.080Z,1007.4
2022-10-05T10:41:38.382Z,1007.4
2022-10-05T10:42:41.639Z,1007.4
2022-10-05T10:43:45.063Z,1007.4
2022-10-05T10:44:48.787Z,1007.4
2022-10-05T10:45:52.222Z,1007.4
2022-10-05T10:46:55.242Z,1007.4
2022-10-05T10:47:59.652Z,1007.4
2022-10-05T10:49:02.713Z,1007.4
2022-10-05T10:50:06.491Z,1007.4
2022-10-05T10:51:09.277Z,1007.4
2022-10-05T10:52:12.621Z,1007.4
2022-10-05T10:53:15.977Z,1007.5
2022-10-05T10:54:19.105Z,1007.3
2022-10-05T10:55:21.927Z,1007.4
2022-10-05T10:56:25.378Z,1007.4
2022-10-05T10:57:29.203Z,1007.4
2022-10-05T10:58:32.121Z,1007.2
2022-10-05T10:59:35.116Z,1007.4
2022-10-05T11:00:37.641Z,1007.4
2022-10-05T11:01:40.987Z,1007.4
2022-10-05T11:02:44.725Z,1007.3
2022-10-05T11:03:48.981Z,1007.4
2022-10-05T11:04:51.429Z,1007.4
2022-10-05T11:05:54.303Z,1007.3
2022-10-05T11:06:57.091Z,1007.3
2022-10-05T11:07:59.792Z,1007.3
2022-10-05T11:09:03.216Z,1007.3
2022-10-05T11:10:06.403Z,1007.3
2022-10-05T11:11:09.260Z,1007.3
2022-10-05T11:12:12.625Z,1007.3
2022-10-05T11:13:15.421Z,1007.3
2022-10-05T11:14:18.278Z,1007.3
2022-10-05T11:15:20.798Z,1007.3
2022-10-05T11:16:24.052Z,1007.4
2022-10-05T11:17:26.858Z,1007.3
2022-10-05T11:18:29.953Z,1007.3
2022-10-05T11:19:59.499Z,1007.4
2022-10-05T11:21:07.971Z,1007.4
2022-10-05T11:22:11.341Z,1007.3
2022-10-05T11:23:14.497Z,1007.3
2022-10-05T11:24:18.492Z,1007.3
2022-10-05T11:25:21.374Z,1007.4
2022-10-05T11:26:23.841Z,1007.3
2022-10-05T11:27:26.914Z,1007.3
2022-10-05T11:28:30.216Z,1007.2
2022-10-05T11:29:33.829Z,1007.3
2022-10-05T11:30:37.021Z,1007.3
2022-10-05T11:31:40.042Z,1007.2
2022-10-05T11:32:43.910Z,1007.2
2022-10-05T11:33:47.365Z,1007.2
2022-10-05T11:34:51.724Z,1007.3
2022-10-05T11:35:53.899Z,1007.2
2022-10-05T11:36:57.144Z,1007.2
2022-10-05T11:37:59.378Z,1007.2
2022-10-05T11:39:02.442Z,1007.2
2022-10-05T11:40:05.399Z,1007.2
2022-10-05T11:41:07.919Z,1007.2
2022-10-05T11:42:10.170Z,1006.9
2022-10-05T11:43:13.589Z,1007.2
2022-10-05T11:44:16.215Z,1007.1
2022-10-05T11:45:19.095Z,1007.2
2022-10-05T11:46:22.574Z,1007.1
2022-10-05T11:47:25.446Z,1007.1
2022-10-05T11:48:28.664Z,1007.1
2022-10-05T11:49:32.113Z,1007.1
2022-10-05T11:50:36.050Z,1007.1
2022-10-05T11:51:38.843Z,1007
2022-10-05T11:52:41.899Z,1007.1
2022-10-05T11:53:45.135Z,1007
2022-10-05T11:55:18.559Z,1007
2022-10-05T11:56:21.754Z,1007
2022-10-05T11:57:24.936Z,1007
2022-10-05T11:58:27.653Z,1007
2022-10-05T11:59:31.182Z,1006.9
2022-10-05T12:00:34.258Z,1006.8
2022-10-05T12:01:37.426Z,1006.9
2022-10-05T12:02:43.843Z,1007
2022-10-05T12:03:48.541Z,1006.9
2022-10-05T12:04:52.323Z,1006.9
2022-10-05T12:05:56.151Z,1007
2022-10-05T12:06:59.223Z,1006.8
2022-10-05T12:08:02.057Z,1006.9
2022-10-05T12:09:04.646Z,1006.9
2022-10-05T12:10:07.632Z,1006.9
2022-10-05T12:11:10.889Z,1006.9
2022-10-05T12:12:13.690Z,1006.9
2022-10-05T12:13:16.650Z,1006.8
2022-10-05T12:14:20.343Z,1006.8
2022-10-05T12:15:23.405Z,1006.7
2022-10-05T12:16:26.228Z,1006.7
2022-10-05T12:17:30.539Z,1006.7
2022-10-05T12:18:34.009Z,1006.8
2022-10-05T12:19:37.622Z,1006.8
2022-10-05T12:20:40.727Z,1006.8
2022-10-05T12:21:44.931Z,1006.8
2022-10-05T12:22:47.244Z,1006.8
2022-10-05T12:23:50.314Z,1006.7
2022-10-05T12:24:53.113Z,1006.8
2022-10-05T12:25:55.851Z,1006.9
2022-10-05T12:26:59.576Z,1006.7
2022-10-05T12:28:02.246Z,1006.7
2022-10-05T12:29:05.293Z,1006.6
2022-10-05T12:30:08.712Z,1006.7
2022-10-05T12:31:12.203Z,1006.6
2022-10-05T12:32:15.300Z,1006.7
2022-10-05T12:33:18.651Z,1006.7
2022-10-05T12:34:21.725Z,1006.6
2022-10-05T12:35:48.885Z,1006.6
2022-10-05T12:37:05.303Z,1006.7
2022-10-05T12:38:09.001Z,1006.6
2022-10-05T12:39:11.710Z,1006.7
2022-10-05T12:40:15.241Z,1006.6
2022-10-05T12:41:18.123Z,1006.6
2022-10-05T12:42:21.299Z,1006.7
2022-10-05T12:43:24.366Z,1006.6
2022-10-05T12:44:27.554Z,1006.7
2022-10-05T12:45:30.944Z,1006.7
2022-10-05T12:46:34.264Z,1006.6
2022-10-05T12:47:38.015Z,1006.5
2022-10-05T12:48:41.683Z,1006.5
2022-10-05T12:49:44.672Z,1006.5
2022-10-05T12:50:48.091Z,1006.6
2022-10-05T12:51:51.520Z,1006.5
2022-10-05T12:52:55.463Z,1006.5
2022-10-05T12:53:58.704Z,1006.5
2022-10-05T12:55:01.146Z,1006.4
2022-10-05T12:56:04.308Z,1006.5
2022-10-05T12:57:06.898Z,1006.4
2022-10-05T12:58:09.970Z,1006.4
2022-10-05T12:59:13.668Z,1006.5
2022-10-05T13:00:23.304Z,1006.5
2022-10-05T13:01:26.278Z,1006.4
2022-10-05T13:02:29.458Z,1006.5
2022-10-05T13:03:32.828Z,1006.3
2022-10-05T13:04:35.641Z,1006.4
2022-10-05T13:05:39.105Z,1006.4
2022-10-05T13:06:42.242Z,1006.3
2022-10-05T13:07:45.308Z,1006.3
2022-10-05T13:08:49.332Z,1006.4
2022-10-05T13:09:52.210Z,1006.4
2022-10-05T13:11:01.957Z,1006.4
2022-10-05T13:12:05.477Z,1006.3
2022-10-05T13:13:08.925Z,1006.3
2022-10-05T13:14:12.282Z,1006.4
2022-10-05T13:15:15.457Z,1006.3
2022-10-05T13:16:18.692Z,1006.3
2022-10-05T13:17:21.863Z,1006.3
2022-10-05T13:18:25.450Z,1006.3
2022-10-05T13:19:28.604Z,1006.3
2022-10-05T13:20:30.934Z,1006.3
2022-10-05T13:21:34.636Z,1006.3